Time;durP1;ratioP1;P1;durP2;ratioP2;P2;SDS_P1;SDS_P2;PMS_P1;PMS_P2;Temp;Humidity;BMP_temperature;BMP_pressure;BME280_temperature;BME280_humidity;BME280_pressure;Samples;Min_cycle;Max_cycle;Signal;HPM_P1;HPM_P2
2023/06/15 00:00:24;;;;;;;4.97;3.45;;;;;;;19.26;100.00;100247.44;4986218;28;20486;-72
2023/06/15 00:02:51;;;;;;;6.80;2.88;;;;;;;19.89;100.00;100327.53;4988839;28;20037;-73
2023/06/15 00:05:16;;;;;;;5.78;3.00;;;;;;;19.79;100.00;100311.91;4993176;28;20050;-73
2023/06/15 00:07:42;;;;;;;7.68;4.07;;;;;;;19.68;100.00;100302.59;4988406;28;20050;-73
2023/06/15 00:10:09;;;;;;;6.50;3.92;;;;;;;19.74;100.00;100331.69;4987305;28;20046;-72
2023/06/15 00:12:34;;;;;;;5.47;3.58;;;;;;;19.25;100.00;100229.75;4991270;28;20038;-73
2023/06/15 00:15:00;;;;;;;5.80;3.28;;;;;;;19.71;100.00;100331.78;4986360;28;20049;-72
2023/06/15 00:17:26;;;;;;;6.07;3.60;;;;;;;19.10;100.00;100244.50;4991063;28;20431;-71
2023/06/15 00:19:53;;;;;;;6.90;4.25;;;;;;;19.40;100.00;100320.47;4989243;28;20058;-72
2023/06/15 00:22:19;;;;;;;5.90;3.85;;;;;;;19.07;100.00;100271.22;4986630;28;20394;-73
2023/06/15 00:24:44;;;;;;;4.53;3.03;;;;;;;18.65;100.00;100214.22;4987800;28;20148;-72
2023/06/15 00:27:10;;;;;;;6.00;3.88;;;;;;;18.90;100.00;100261.22;4986272;28;20050;-71
2023/06/15 00:29:37;;;;;;;7.30;5.35;;;;;;;19.28;100.00;100331.59;4984501;28;20512;-73
2023/06/15 00:32:07;;;;;;;5.53;4.18;;;;;;;18.86;100.00;100264.91;5016357;28;20042;-73
2023/06/15 00:34:34;;;;;;;7.05;4.50;;;;;;;18.37;100.00;100209.03;4983207;28;20735;-73
2023/06/15 00:36:59;;;;;;;5.45;3.95;;;;;;;18.24;100.00;100186.47;4988774;28;20856;-73
2023/06/15 00:39:25;;;;;;;7.25;4.82;;;;;;;18.75;100.00;100268.81;4991360;28;20069;-73
2023/06/15 00:41:50;;;;;;;21.88;4.88;;;;;;;19.09;100.00;100325.22;4987869;28;20054;-73
2023/06/15 00:44:16;;;;;;;11.77;4.57;;;;;;;18.68;100.00;100258.41;4988291;28;20089;-73
2023/06/15 00:46:41;;;;;;;9.15;4.63;;;;;;;18.58;100.00;100244.59;4982017;28;20345;-73
2023/06/15 00:49:07;;;;;;;5.50;4.35;;;;;;;18.51;100.00;100241.28;4984948;28;20460;-73
2023/06/15 00:51:38;;;;;;;6.97;4.43;;;;;;;18.76;100.00;100322.81;4978423;28;20540;-73
2023/06/15 00:54:04;;;;;;;7.40;4.68;;;;;;;18.91;100.00;100321.44;4984152;28;20034;-73
2023/06/15 00:56:30;;;;;;;4.82;3.40;;;;;;;19.10;100.00;100324.28;4985440;28;20085;-72
2023/06/15 00:58:56;;;;;;;5.88;4.13;;;;;;;18.52;100.00;100236.88;4983163;28;20121;-72
2023/06/15 01:01:24;;;;;;;6.95;5.50;;;;;;;18.38;100.00;100224.06;4983324;28;20220;-72
2023/06/15 01:03:50;;;;;;;5.82;4.68;;;;;;;18.97;100.00;100308.78;4987207;28;20058;-75
2023/06/15 01:06:19;;;;;;;6.70;4.18;;;;;;;18.26;100.00;100219.16;4985890;28;20724;-73
2023/06/15 01:08:47;;;;;;;7.32;4.55;;;;;;;18.77;100.00;100298.84;4983354;28;20038;-73
2023/06/15 01:11:14;;;;;;;6.72;4.03;;;;;;;18.75;100.00;100308.69;4978138;28;20061;-73
2023/06/15 01:13:44;;;;;;;12.05;4.50;;;;;;;18.16;100.00;100212.44;4985543;28;20047;-73
2023/06/15 01:16:17;;;;;;;5.18;4.05;;;;;;;18.47;100.00;100268.91;4983494;28;20051;-74
2023/06/15 01:18:46;;;;;;;12.57;5.53;;;;;;;18.31;100.00;100228.72;4984768;28;20050;-73
2023/06/15 01:21:13;;;;;;;6.40;4.20;;;;;;;18.24;100.00;100213.91;4986223;28;20042;-74
2023/06/15 01:23:49;;;;;;;7.40;5.05;;;;;;;18.72;100.00;100313.22;4983042;28;20029;-73
2023/06/15 01:26:17;;;;;;;7.28;4.35;;;;;;;18.43;100.00;100269.94;4988098;28;20600;-73
2023/06/15 01:28:49;;;;;;;6.13;4.53;;;;;;;18.35;100.00;100267.56;4986222;28;20070;-72
2023/06/15 01:31:16;;;;;;;7.85;5.85;;;;;;;18.31;100.00;100278.34;4993719;28;20093;-73
2023/06/15 01:33:48;;;;;;;7.38;4.57;;;;;;;18.23;100.00;100286.53;4993120;28;20065;-73
2023/06/15 01:36:15;;;;;;;8.30;4.95;;;;;;;17.81;100.00;100188.81;4985986;28;20093;-73
2023/06/15 01:38:42;;;;;;;4.88;3.35;;;;;;;18.51;100.00;100307.72;4988312;28;20133;-73
2023/06/15 01:41:08;;;;;;;6.30;4.13;;;;;;;18.37;100.00;100271.94;4989488;28;20050;-72
2023/06/15 01:43:36;;;;;;;6.10;3.80;;;;;;;18.39;100.00;100275.41;4985897;28;20153;-73
2023/06/15 01:46:03;;;;;;;9.13;4.30;;;;;;;17.88;100.00;100219.53;4985050;28;20078;-73
2023/06/15 01:48:29;;;;;;;9.45;4.93;;;;;;;18.37;100.00;100283.41;4986551;28;20061;-73
2023/06/15 01:50:55;;;;;;;7.40;5.03;;;;;;;17.75;100.00;100193.41;4983303;28;20030;-72
2023/06/15 01:53:21;;;;;;;6.90;4.88;;;;;;;18.26;100.00;100294.44;4985788;28;20042;-74
2023/06/15 01:55:47;;;;;;;7.70;4.88;;;;;;;18.22;100.00;100284.81;4982556;28;20057;-73
2023/06/15 01:58:16;;;;;;;8.88;4.95;;;;;;;18.25;100.00;100284.69;4982858;28;20127;-73
2023/06/15 02:00:46;;;;;;;12.82;4.97;;;;;;;18.16;100.00;100279.69;4983013;28;20093;-74
2023/06/15 02:03:12;;;;;;;7.90;4.68;;;;;;;17.69;100.00;100194.50;4983041;28;20545;-73
2023/06/15 02:05:41;;;;;;;8.20;6.05;;;;;;;17.82;100.00;100237.47;4985317;28;20121;-74
2023/06/15 02:08:10;;;;;;;8.27;5.20;;;;;;;17.90;100.00;100224.81;4986775;28;20151;-75
2023/06/15 02:10:36;;;;;;;8.63;5.63;;;;;;;17.76;100.00;100201.34;4984699;28;20565;-73
2023/06/15 02:13:02;;;;;;;9.77;5.47;;;;;;;17.70;100.00;100196.25;4985112;28;20054;-73
2023/06/15 02:15:28;;;;;;;6.75;4.70;;;;;;;17.55;100.00;100184.34;4986573;28;20419;-73
2023/06/15 02:17:58;;;;;;;6.40;4.82;;;;;;;18.24;100.00;100298.91;4985949;28;20043;-72
2023/06/15 02:20:25;;;;;;;7.30;4.95;;;;;;;17.61;100.00;100208.03;4984090;28;20088;-72
2023/06/15 02:22:52;;;;;;;7.57;5.43;;;;;;;17.60;100.00;100197.47;4984332;28;20058;-72
2023/06/15 02:25:18;;;;;;;10.60;6.72;;;;;;;17.65;100.00;100211.44;4988224;28;20808;-74
2023/06/15 02:27:44;;;;;;;7.28;4.75;;;;;;;18.01;100.00;100290.84;4988765;28;20056;-73
2023/06/15 02:30:11;;;;;;;8.07;5.15;;;;;;;17.73;100.00;100262.50;4983911;28;20133;-72
2023/06/15 02:32:39;;;;;;;6.22;4.63;;;;;;;17.45;100.00;100198.81;4982940;28;20513;-74
2023/06/15 02:35:11;;;;;;;9.00;4.85;;;;;;;17.94;100.00;100306.09;4986585;28;20050;-72
2023/06/15 02:37:38;;;;;;;6.03;5.40;;;;;;;17.90;100.00;100286.72;4984590;28;20058;-74
2023/06/15 02:40:04;;;;;;;7.05;4.88;;;;;;;18.07;100.00;100296.78;4982743;28;20050;-74
2023/06/15 02:42:30;;;;;;;7.03;4.55;;;;;;;16.81;100.00;100114.19;4985863;28;20073;-73
2023/06/15 02:44:55;;;;;;;8.70;5.60;;;;;;;17.71;100.00;100235.13;4985027;28;20439;-73
2023/06/15 02:47:21;;;;;;;8.02;5.90;;;;;;;17.78;100.00;100247.28;4988779;28;20029;-73
2023/06/15 02:49:47;;;;;;;9.18;5.07;;;;;;;17.43;100.00;100205.97;4980414;28;20396;-73
2023/06/15 02:52:13;;;;;;;6.82;4.13;;;;;;;17.57;100.00;100217.00;4984372;28;20046;-72
2023/06/15 02:54:39;;;;;;;6.50;4.20;;;;;;;18.17;100.00;100323.06;4981446;28;20054;-74
2023/06/15 02:57:08;;;;;;;8.02;4.97;;;;;;;17.83;100.00;100317.03;4982497;28;20577;-74
2023/06/15 02:59:35;;;;;;;11.80;7.90;;;;;;;17.22;100.00;100226.91;4983074;28;20623;-74
2023/06/15 03:02:04;;;;;;;20.52;5.38;;;;;;;17.58;100.00;100268.28;4982645;28;20046;-74
2023/06/15 03:04:30;;;;;;;6.32;4.68;;;;;;;16.99;100.00;100174.59;4986199;28;20058;-73
2023/06/15 03:06:57;;;;;;;8.50;4.97;;;;;;;17.19;100.00;100219.06;5011868;28;20426;-74
2023/06/15 03:09:23;;;;;;;7.05;4.72;;;;;;;17.91;100.00;100327.41;4986810;28;20482;-73
2023/06/15 03:11:50;;;;;;;8.52;4.65;;;;;;;17.71;100.00;100320.06;4982759;28;20045;-73
2023/06/15 03:14:18;;;;;;;7.65;4.75;;;;;;;17.69;100.00;100322.75;4985762;28;20038;-74
2023/06/15 03:16:47;;;;;;;6.63;4.43;;;;;;;17.79;100.00;100307.41;4982924;28;20136;-72
2023/06/15 03:19:15;;;;;;;6.80;4.22;;;;;;;17.95;100.00;100325.53;4975169;28;20047;-73
2023/06/15 03:21:41;;;;;;;5.35;4.38;;;;;;;17.84;100.00;100296.66;4980349;28;20041;-74
2023/06/15 03:24:08;;;;;;;10.77;6.60;;;;;;;18.00;100.00;100328.91;4981643;28;20100;-74
2023/06/15 03:26:36;;;;;;;8.30;4.93;;;;;;;17.40;100.00;100225.50;4985524;28;20080;-73
2023/06/15 03:29:02;;;;;;;11.02;5.75;;;;;;;17.58;100.00;100228.47;4984121;28;20077;-73
2023/06/15 03:31:28;;;;;;;8.30;4.47;;;;;;;17.61;100.00;100234.56;4983460;28;20046;-73
2023/06/15 03:33:57;;;;;;;7.90;4.75;;;;;;;18.13;100.00;100320.50;4983065;28;20060;-72
2023/06/15 03:36:25;;;;;;;6.50;4.80;;;;;;;17.64;100.00;100238.91;4986192;28;20046;-72
2023/06/15 03:38:50;;;;;;;7.40;5.30;;;;;;;18.27;100.00;100336.00;4980754;28;20065;-73
2023/06/15 03:41:16;;;;;;;10.88;4.63;;;;;;;18.19;100.00;100329.19;4986499;28;20084;-73
2023/06/15 03:43:41;;;;;;;9.93;5.82;;;;;;;18.08;100.00;100337.53;4987974;28;20591;-72
2023/06/15 03:46:07;;;;;;;8.15;6.25;;;;;;;18.01;100.00;100335.97;4985312;28;20458;-73
2023/06/15 03:48:33;;;;;;;7.50;4.10;;;;;;;17.29;100.00;100227.59;4986406;28;20044;-73
2023/06/15 03:50:59;;;;;;;9.52;5.47;;;;;;;17.93;100.00;100333.53;4985110;28;20486;-72
2023/06/15 03:53:24;;;;;;;9.60;4.43;;;;;;;17.70;100.00;100278.53;4983651;28;20066;-73
2023/06/15 03:55:51;;;;;;;8.30;4.75;;;;;;;17.56;100.00;100225.00;4979366;28;20506;-73
2023/06/15 03:58:17;;;;;;;9.68;5.55;;;;;;;18.28;100.00;100335.06;4987642;28;20132;-73
2023/06/15 04:00:43;;;;;;;8.88;6.63;;;;;;;17.38;100.00;100202.59;4985259;28;20061;-72
2023/06/15 04:03:09;;;;;;;7.32;4.75;;;;;;;17.94;100.00;100324.69;4981055;28;20168;-73
2023/06/15 04:05:34;;;;;;;11.55;6.78;;;;;;;18.17;100.00;100329.25;4984729;28;20030;-73
2023/06/15 04:08:01;;;;;;;6.07;4.47;;;;;;;18.03;100.00;100332.34;4985774;28;20043;-74
2023/06/15 04:10:27;;;;;;;9.30;4.90;;;;;;;17.28;100.00;100197.56;4985387;28;20046;-72
2023/06/15 04:12:52;;;;;;;7.43;4.90;;;;;;;17.54;100.00;100258.69;4981012;28;20062;-74
2023/06/15 04:15:19;;;;;;;8.98;5.43;;;;;;;17.87;100.00;100329.31;4981899;28;20049;-74
2023/06/15 04:17:44;;;;;;;13.75;4.90;;;;;;;17.36;100.00;100217.69;4979536;28;20058;-73
2023/06/15 04:20:11;;;;;;;7.22;4.60;;;;;;;17.58;100.00;100234.63;4986228;28;20080;-73
2023/06/15 04:22:37;;;;;;;7.40;5.43;;;;;;;17.64;100.00;100246.88;4982548;28;20053;-73
2023/06/15 04:25:03;;;;;;;6.30;4.13;;;;;;;17.89;100.00;100306.25;4984320;28;20054;-74
2023/06/15 04:27:30;;;;;;;8.48;5.57;;;;;;;17.78;100.00;100257.03;4980990;28;20046;-73
2023/06/15 04:29:57;;;;;;;12.30;5.70;;;;;;;18.09;100.00;100333.94;4981450;28;20046;-73
2023/06/15 04:32:25;;;;;;;14.95;7.15;;;;;;;18.35;100.00;100339.28;5017567;28;20050;-73
2023/06/15 04:34:54;;;;;;;8.75;5.93;;;;;;;17.99;100.00;100253.72;4987032;28;20061;-73
2023/06/15 04:37:20;;;;;;;8.05;5.00;;;;;;;18.13;100.00;100277.16;4986629;28;20202;-72
2023/06/15 04:39:46;;;;;;;7.40;4.80;;;;;;;18.08;100.00;100274.66;4988480;28;20046;-74
2023/06/15 04:42:12;;;;;;;11.00;5.13;;;;;;;18.68;100.00;100370.94;4984471;28;20085;-73
2023/06/15 04:44:38;;;;;;;9.88;4.85;;;;;;;18.83;100.00;100369.56;4987693;28;20112;-74
2023/06/15 04:47:04;;;;;;;15.00;5.45;;;;;;;18.87;100.00;100379.19;4983118;28;20050;-73
2023/06/15 04:49:31;;;;;;;10.45;5.10;;;;;;;19.12;100.00;100365.00;5021742;28;20125;-72
2023/06/15 04:51:57;;;;;;;10.18;6.20;;;;;;;18.84;100.00;100294.19;4989881;28;20391;-74
2023/06/15 04:54:22;;;;;;;9.75;6.03;;;;;;;18.92;100.00;100284.16;4990814;28;20060;-73
2023/06/15 04:56:48;;;;;;;17.27;5.00;;;;;;;18.80;100.00;100251.81;5010481;28;20030;-73
2023/06/15 04:59:13;;;;;;;7.10;5.07;;;;;;;19.65;100.00;100358.63;4982426;28;20041;-73
2023/06/15 05:01:39;;;;;;;10.05;5.40;;;;;;;19.36;100.00;100260.34;4987128;28;20038;-73
2023/06/15 05:04:05;;;;;;;13.60;5.13;;;;;;;20.03;100.00;100343.81;4981872;28;20133;-72
2023/06/15 05:06:30;;;;;;;9.80;5.35;;;;;;;20.32;100.00;100349.75;4985264;28;20145;-72
2023/06/15 05:08:57;;;;;;;11.00;6.45;;;;;;;19.77;100.00;100243.69;4981327;28;20045;-72
2023/06/15 05:11:22;;;;;;;10.60;5.95;;;;;;;20.84;100.00;100375.13;4983449;28;20058;-73
2023/06/15 05:13:48;;;;;;;5.80;3.83;;;;;;;21.49;100.00;100375.84;4986148;28;20573;-72
2023/06/15 05:16:14;;;;;;;5.93;4.18;;;;;;;21.38;100.00;100359.41;4981951;28;20051;-73
2023/06/15 05:18:39;;;;;;;7.90;4.38;;;;;;;21.96;100.00;100390.59;4981213;28;20054;-74
2023/06/15 05:21:05;;;;;;;5.30;3.38;;;;;;;22.04;100.00;100363.47;4985352;28;20030;-73
2023/06/15 05:23:31;;;;;;;7.57;3.67;;;;;;;21.50;100.00;100259.22;4988771;28;20022;-74
2023/06/15 05:25:58;;;;;;;7.88;4.50;;;;;;;21.86;100.00;100295.75;4984234;28;20042;-73
2023/06/15 05:28:25;;;;;;;14.55;4.07;;;;;;;22.60;100.00;100386.59;4986520;28;20135;-71
2023/06/15 05:30:51;;;;;;;13.30;4.15;;;;;;;23.08;100.00;100401.06;4983441;28;20059;-73
2023/06/15 05:33:17;;;;;;;6.85;3.80;;;;;;;23.02;100.00;100301.53;4987074;28;20093;-73
2023/06/15 05:35:43;;;;;;;8.63;4.10;;;;;;;22.88;100.00;100313.78;4988416;28;20037;-74
2023/06/15 05:38:08;;;;;;;7.95;4.90;;;;;;;23.63;100.00;100294.63;4985724;28;20050;-74
2023/06/15 05:40:34;;;;;;;8.85;5.45;;;;;;;24.64;100.00;100422.94;4985655;28;20502;-73
2023/06/15 05:42:59;;;;;;;9.68;4.68;;;;;;;24.02;100.00;100334.38;4985828;28;20800;-73
2023/06/15 05:45:25;;;;;;;9.45;5.10;;;;;;;24.68;100.00;100405.72;4985475;28;20057;-73
2023/06/15 05:47:50;;;;;;;8.35;5.65;;;;;;;24.36;100.00;100380.72;4986783;28;20074;-73
2023/06/15 05:50:16;;;;;;;10.10;5.07;;;;;;;24.92;100.00;100338.94;4987724;28;20125;-74
2023/06/15 05:52:41;;;;;;;7.47;3.83;;;;;;;25.34;100.00;100396.38;4982137;28;20104;-73
2023/06/15 05:55:07;;;;;;;9.70;3.83;;;;;;;24.90;100.00;100310.47;4983912;28;20046;-73
2023/06/15 05:57:34;;;;;;;4.97;3.47;;;;;;;25.05;100.00;100336.38;5017493;28;20091;-73
2023/06/15 05:59:59;;;;;;;7.25;3.88;;;;;;;25.99;100.00;100409.34;4988609;28;20081;-74
2023/06/15 06:02:25;;;;;;;11.02;3.75;;;;;;;24.81;100.00;100333.38;4987548;28;20943;-74
2023/06/15 06:04:50;;;;;;;6.97;4.32;;;;;;;25.38;100.00;100397.94;4985562;28;20566;-71
2023/06/15 06:07:17;;;;;;;6.93;3.33;;;;;;;25.58;100.00;100363.56;4986709;28;20061;-73
2023/06/15 06:09:42;;;;;;;6.25;3.70;;;;;;;25.33;100.00;100335.53;4986105;28;20435;-73
2023/06/15 06:12:08;;;;;;;7.15;3.65;;;;;;;26.08;100.00;100419.50;4987068;28;20074;-73
2023/06/15 06:14:34;;;;;;;6.63;4.32;;;;;;;25.49;100.00;100386.50;4986932;28;20087;-72
2023/06/15 06:16:59;;;;;;;11.80;4.35;;;;;;;25.55;100.00;100407.63;4987464;28;20050;-72
2023/06/15 06:19:25;;;;;;;6.78;4.13;;;;;;;25.88;100.00;100420.78;4984179;28;20138;-73
2023/06/15 06:21:51;;;;;;;8.57;3.97;;;;;;;26.03;100.00;100420.75;4987147;28;20054;-73
2023/06/15 06:24:17;;;;;;;4.40;3.05;;;;;;;26.27;100.00;100365.38;4983583;28;20053;-73
2023/06/15 06:26:42;;;;;;;5.70;3.47;;;;;;;26.17;100.00;100418.03;4983088;28;20125;-72
2023/06/15 06:29:08;;;;;;;5.38;2.85;;;;;;;26.08;100.00;100337.94;4986686;28;20097;-73
2023/06/15 06:31:34;;;;;;;3.95;2.95;;;;;;;26.62;100.00;100431.28;4984581;28;20058;-73
2023/06/15 06:33:59;;;;;;;4.32;2.45;;;;;;;26.72;99.45;100429.72;4985671;28;20097;-72
2023/06/15 06:36:26;;;;;;;5.63;3.17;;;;;;;26.59;91.58;100426.09;4986935;28;20046;-72
2023/06/15 06:38:51;;;;;;;4.88;2.40;;;;;;;26.30;94.87;100346.31;4983506;28;20042;-72
2023/06/15 06:41:17;;;;;;;4.40;3.35;;;;;;;26.57;97.07;100409.19;4983095;28;20041;-72
2023/06/15 06:43:43;;;;;;;4.88;3.85;;;;;;;26.43;95.98;100421.69;4980703;28;20068;-71
2023/06/15 06:46:09;;;;;;;4.68;2.17;;;;;;;26.61;97.46;100418.78;4982232;28;20050;-72
2023/06/15 06:48:34;;;;;;;3.60;2.28;;;;;;;26.28;94.84;100328.56;4987501;28;20050;-72
2023/06/15 06:51:00;;;;;;;5.10;2.58;;;;;;;26.36;97.47;100401.53;4985025;28;20033;-74
2023/06/15 06:53:25;;;;;;;3.72;2.45;;;;;;;26.59;93.81;100416.19;4985046;28;20828;-72
2023/06/15 06:55:51;;;;;;;4.40;2.45;;;;;;;25.86;97.16;100288.28;4986163;28;20149;-71
2023/06/15 06:58:16;;;;;;;10.77;3.42;;;;;;;26.78;90.99;100406.88;4984217;28;20061;-73
2023/06/15 07:00:42;;;;;;;5.00;3.20;;;;;;;27.10;94.42;100407.38;4982063;28;20490;-73
2023/06/15 07:03:07;;;;;;;3.85;2.25;;;;;;;26.45;82.34;100305.88;4985332;28;20093;-72
2023/06/15 07:05:34;;;;;;;4.80;2.53;;;;;;;26.10;84.21;100221.22;4988452;28;20497;-73
2023/06/15 07:08:00;;;;;;;6.50;2.85;;;;;;;26.82;82.89;100411.09;4982982;28;20054;-74
2023/06/15 07:10:25;;;;;;;3.25;2.42;;;;;;;26.65;85.15;100379.94;4983327;28;20047;-74
2023/06/15 07:12:55;;;;;;;3.10;2.15;;;;;;;26.60;83.81;100412.56;4979042;28;20128;-70
2023/06/15 07:15:21;;;;;;;4.75;2.63;;;;;;;26.05;93.19;100332.78;4975211;28;20046;-72
2023/06/15 07:17:46;;;;;;;3.53;2.05;;;;;;;26.02;86.45;100293.50;4978677;28;20062;-71
2023/06/15 07:20:12;;;;;;;3.58;1.70;;;;;;;26.28;77.91;100336.63;4978963;28;20177;-68
2023/06/15 07:22:37;;;;;;;3.28;2.10;;;;;;;27.10;73.13;100410.06;4983152;28;20065;-68
2023/06/15 07:25:03;;;;;;;4.25;2.15;;;;;;;26.39;75.44;100312.56;4984185;28;20093;-68
2023/06/15 07:27:28;;;;;;;7.05;2.97;;;;;;;27.51;75.80;100400.94;4977355;28;20498;-68
2023/06/15 07:29:54;;;;;;;1.98;1.35;;;;;;;26.67;67.85;100329.56;4980999;28;20501;-69
2023/06/15 07:32:20;;;;;;;2.25;1.50;;;;;;;26.15;72.07;100277.41;4983112;28;20128;-66
2023/06/15 07:34:45;;;;;;;4.45;2.72;;;;;;;26.99;72.50;100396.47;4973105;28;20054;-68
2023/06/15 07:37:11;;;;;;;2.80;1.90;;;;;;;26.78;85.29;100401.50;4968844;28;20112;-72
2023/06/15 07:39:36;;;;;;;3.97;2.03;;;;;;;27.41;76.51;100376.47;4978956;28;20046;-70
2023/06/15 07:42:02;;;;;;;3.20;2.25;;;;;;;26.60;71.35;100310.28;4976920;28;20501;-70
2023/06/15 07:44:28;;;;;;;2.08;1.48;;;;;;;27.17;71.40;100397.91;4978620;28;20088;-66
2023/06/15 07:46:53;;;;;;;3.20;1.85;;;;;;;26.30;74.41;100302.41;4980728;28;20498;-71
2023/06/15 07:49:19;;;;;;;3.78;1.92;;;;;;;26.27;73.77;100306.19;4979824;28;20049;-71
2023/06/15 07:51:45;;;;;;;5.47;2.70;;;;;;;26.83;78.35;100329.34;4980558;28;20125;-70
2023/06/15 07:54:11;;;;;;;6.10;2.60;;;;;;;27.52;67.94;100381.97;4979127;28;20046;-66
2023/06/15 07:56:37;;;;;;;4.32;2.72;;;;;;;27.34;73.47;100396.75;4976255;28;20521;-72
2023/06/15 07:59:02;;;;;;;6.10;1.75;;;;;;;26.98;67.73;100292.41;4976114;28;20679;-74
2023/06/15 08:01:28;;;;;;;4.93;1.35;;;;;;;27.50;68.71;100312.97;4981657;28;20057;-72
2023/06/15 08:03:53;;;;;;;2.33;1.02;;;;;;;27.35;68.42;100390.41;4986233;28;20560;-70
2023/06/15 08:06:18;;;;;;;4.72;2.55;;;;;;;27.35;61.61;100383.16;4981998;28;20054;-70
2023/06/15 08:08:45;;;;;;;2.00;1.60;;;;;;;27.76;58.30;100300.28;4985171;28;20037;-70
2023/06/15 08:11:10;;;;;;;3.33;2.33;;;;;;;28.53;59.93;100379.09;4980455;28;20392;-70
2023/06/15 08:13:37;;;;;;;4.20;2.25;;;;;;;28.14;59.22;100366.72;4975704;28;20057;-72
2023/06/15 08:16:05;;;;;;;3.58;2.33;;;;;;;28.51;60.26;100375.66;4986285;28;20062;-71
2023/06/15 08:18:31;;;;;;;2.90;2.05;;;;;;;27.94;62.34;100331.31;4986440;28;20046;-70
2023/06/15 08:20:57;;;;;;;2.78;1.50;;;;;;;28.18;57.53;100292.69;4981016;28;20133;-71
2023/06/15 08:23:22;;;;;;;4.15;2.17;;;;;;;27.31;63.04;100259.53;4986020;28;20026;-71
2023/06/15 08:25:48;;;;;;;4.82;2.35;;;;;;;28.15;62.03;100374.72;4986787;28;20129;-70
2023/06/15 08:28:13;;;;;;;6.07;2.25;;;;;;;28.25;63.61;100353.31;4985875;28;20054;-71
2023/06/15 08:30:39;;;;;;;3.88;2.28;;;;;;;28.89;57.97;100352.94;4986016;28;20051;-70
2023/06/15 08:33:05;;;;;;;3.50;2.22;;;;;;;29.44;57.41;100366.69;4985906;28;20035;-71
2023/06/15 08:35:31;;;;;;;5.30;2.67;;;;;;;28.78;55.16;100253.00;4986441;28;20038;-71
2023/06/15 08:37:56;;;;;;;4.80;2.15;;;;;;;28.78;57.77;100301.63;4981807;28;20124;-71
2023/06/15 08:40:22;;;;;;;5.15;2.78;;;;;;;29.38;55.79;100376.16;4980851;28;20085;-72
2023/06/15 08:42:50;;;;;;;3.40;1.55;;;;;;;28.23;64.98;100365.19;4984688;28;20136;-70
2023/06/15 08:45:18;;;;;;;3.28;2.50;;;;;;;27.62;61.42;100325.53;4983774;28;20400;-71
2023/06/15 08:47:43;;;;;;;1.75;1.00;;;;;;;28.03;64.67;100369.38;4979484;28;20039;-69
2023/06/15 08:50:10;;;;;;;3.20;1.70;;;;;;;28.14;60.44;100373.00;4984118;28;20050;-75
2023/06/15 08:52:36;;;;;;;2.38;1.70;;;;;;;28.24;56.72;100357.00;4988060;28;20104;-70
2023/06/15 08:55:02;;;;;;;3.30;1.52;;;;;;;29.27;55.70;100367.16;4987499;28;20109;-69
2023/06/15 08:57:29;;;;;;;1.52;1.23;;;;;;;26.85;54.73;100209.78;4985737;28;20077;-69
2023/06/15 08:59:56;;;;;;;3.70;2.30;;;;;;;29.24;55.31;100362.88;4985064;28;20550;-70
2023/06/15 09:02:23;;;;;;;3.97;2.33;;;;;;;29.30;54.47;100350.72;4985721;28;20034;-67
2023/06/15 09:04:53;;;;;;;3.40;1.80;;;;;;;29.89;53.69;100353.16;4987429;28;20046;-70
2023/06/15 09:07:19;;;;;;;3.33;2.60;;;;;;;28.62;54.28;100355.97;4984183;28;20073;-70
2023/06/15 09:10:13;;;;;;;3.45;2.17;;;;;;;29.99;52.86;100362.25;4983124;28;20868;-69
2023/06/15 09:12:45;;;;;;;3.15;1.75;;;;;;;29.51;52.73;100367.94;4979954;28;20422;-72
2023/06/15 09:15:17;;;;;;;2.28;1.20;;;;;;;30.06;50.14;100260.63;4973804;28;20141;-72
2023/06/15 09:17:43;;;;;;;4.22;1.65;;;;;;;31.07;47.66;100355.91;4978598;28;20039;-71
2023/06/15 09:20:09;;;;;;;1.98;1.27;;;;;;;31.13;48.67;100352.69;4976770;28;20166;-71
2023/06/15 09:22:45;;;;;;;5.03;1.60;;;;;;;30.22;49.84;100332.41;4973845;28;20089;-70
2023/06/15 09:25:21;;;;;;;3.22;1.38;;;;;;;30.53;47.79;100340.69;4978751;28;20147;-69
2023/06/15 09:27:57;;;;;;;4.60;2.17;;;;;;;30.37;49.64;100333.00;4975861;28;20085;-71
2023/06/15 09:30:32;;;;;;;4.00;2.55;;;;;;;29.07;51.06;100334.47;4978790;28;20058;-69
2023/06/15 09:32:58;;;;;;;2.67;1.92;;;;;;;28.34;51.51;100238.41;4977929;28;20043;-69
2023/06/15 09:35:24;;;;;;;2.42;1.30;;;;;;;29.22;50.32;100310.78;4975071;28;20045;-70
2023/06/15 09:37:55;;;;;;;3.33;2.08;;;;;;;30.33;49.80;100324.28;4975535;28;20722;-70
2023/06/15 09:40:25;;;;;;;2.58;1.52;;;;;;;30.88;48.80;100318.72;4978147;28;20046;-70
2023/06/15 09:42:53;;;;;;;2.65;1.52;;;;;;;30.83;47.53;100313.66;4976630;28;20125;-70
2023/06/15 09:45:18;;;;;;;4.60;1.55;;;;;;;30.94;49.63;100311.91;4975590;28;20057;-71
2023/06/15 09:47:44;;;;;;;3.55;2.13;;;;;;;30.44;48.24;100299.00;4981629;28;20135;-73
2023/06/15 09:50:11;;;;;;;2.90;1.88;;;;;;;29.25;49.99;100299.72;4966110;28;20054;-73
2023/06/15 09:52:42;;;;;;;5.32;2.30;;;;;;;30.60;48.74;100314.78;4971788;28;20137;-73
2023/06/15 09:55:08;;;;;;;4.33;2.50;;;;;;;30.22;48.19;100284.53;4972599;28;20161;-69
2023/06/15 09:57:35;;;;;;;2.05;1.35;;;;;;;31.44;46.95;100307.44;4974513;28;20076;-69
2023/06/15 10:00:02;;;;;;;1.98;1.45;;;;;;;30.62;47.21;100280.31;4967191;28;20038;-69
2023/06/15 10:02:29;;;;;;;2.72;2.00;;;;;;;29.80;47.95;100307.94;4982142;28;20115;-70
2023/06/15 10:04:56;;;;;;;2.92;1.75;;;;;;;29.09;48.87;100237.09;4977893;28;20061;-71
2023/06/15 10:07:21;;;;;;;2.85;2.05;;;;;;;29.35;48.39;100210.63;4980189;28;20050;-68
2023/06/15 10:09:49;;;;;;;3.88;2.45;;;;;;;29.01;51.17;100218.75;4975921;28;20097;-72
2023/06/15 10:12:25;;;;;;;2.03;1.27;;;;;;;29.35;48.85;100230.41;4971355;28;20569;-73
2023/06/15 10:15:10;;;;;;;3.63;1.98;;;;;;;29.69;47.38;100203.34;4977226;28;20214;-72
2023/06/15 10:17:40;;;;;;;2.33;1.45;;;;;;;30.66;46.68;100197.78;4977724;28;20038;-76
2023/06/15 10:20:13;;;;;;;1.50;1.08;;;;;;;31.04;46.79;100291.97;4981709;28;20100;-74
2023/06/15 10:22:53;;;;;;;5.45;1.95;;;;;;;30.55;46.95;100200.56;4976579;28;20046;-70
2023/06/15 10:25:21;;;;;;;3.17;1.88;;;;;;;28.67;47.83;100221.44;4975120;28;20069;-70
2023/06/15 10:27:48;;;;;;;2.55;1.67;;;;;;;29.33;48.77;100189.13;4973853;28;20051;-69
2023/06/15 10:30:52;;;;;;;2.40;1.35;;;;;;;30.67;48.05;100284.34;4979295;28;20116;-68
2023/06/15 10:33:24;;;;;;;2.50;1.40;;;;;;;31.31;45.45;100215.47;4918659;29;20621;-70
2023/06/15 10:36:03;;;;;;;2.33;0.88;;;;;;;31.47;45.21;100255.66;4917019;29;20567;-67
2023/06/15 10:38:51;;;;;;;2.47;1.20;;;;;;;30.17;46.78;100277.81;4952820;28;20046;-68
2023/06/15 10:41:19;;;;;;;3.10;1.92;;;;;;;29.25;49.53;100257.34;4974561;28;20538;-71
2023/06/15 10:44:05;;;;;;;2.85;1.52;;;;;;;28.97;50.24;100192.97;4973259;28;20054;-70
2023/06/15 10:46:34;;;;;;;2.75;1.40;;;;;;;28.92;49.85;100201.44;4973343;28;20046;-67
2023/06/15 10:49:05;;;;;;;2.83;1.73;;;;;;;28.47;51.23;100181.63;4977817;28;20062;-71
2023/06/15 10:51:35;;;;;;;9.52;1.45;;;;;;;28.84;50.64;100236.28;4976439;28;20057;-69
2023/06/15 10:54:03;;;;;;;2.88;1.77;;;;;;;28.44;51.15;100258.28;4974268;28;20088;-69
2023/06/15 10:56:28;;;;;;;2.72;1.60;;;;;;;28.39;51.35;100217.31;4983230;28;20414;-69
2023/06/15 10:59:01;;;;;;;3.13;2.13;;;;;;;28.61;50.71;100260.59;4973684;28;20046;-72
2023/06/15 11:01:29;;;;;;;2.97;1.65;;;;;;;27.90;51.11;100176.06;4976352;28;20064;-74
2023/06/15 11:03:55;;;;;;;11.98;1.63;;;;;;;28.98;50.99;100244.16;4977671;28;20143;-71
2023/06/15 11:06:42;;;;;;;3.25;1.77;;;;;;;29.03;50.06;100255.50;4979698;28;20073;-72
2023/06/15 11:09:12;;;;;;;2.03;1.30;;;;;;;29.70;49.10;100261.00;4978320;28;20078;-72
2023/06/15 11:11:42;;;;;;;2.03;1.25;;;;;;;28.73;50.49;100183.16;4975788;28;20080;-74
2023/06/15 11:14:22;;;;;;;5.10;1.92;;;;;;;28.83;48.62;100156.25;4984315;28;20045;-73
2023/06/15 11:17:03;;;;;;;2.70;1.48;;;;;;;30.35;47.63;100246.50;4983053;28;20045;-75
2023/06/15 11:19:29;;;;;;;1.85;1.05;;;;;;;30.19;47.52;100238.78;4975514;28;20053;-72